sensor_id;sensor_type;location;lat;lon;timestamp;P1;durP1;ratioP1;P2;durP2;ratioP2
68144;SDS011;55400;51.824;-0.196;2023-04-07T00:02:44;9.60;;;2.20;;
68144;SDS011;55400;51.824;-0.196;2023-04-07T00:06:44;8.30;;;2.10;;
68144;SDS011;55400;51.824;-0.196;2023-04-07T00:10:44;6.40;;;2.00;;
68144;SDS011;55400;51.824;-0.196;2023-04-07T00:14:43;8.90;;;2.40;;
68144;SDS011;55400;51.824;-0.196;2023-04-07T00:18:44;10.70;;;2.80;;
68144;SDS011;55400;51.824;-0.196;2023-04-07T00:22:43;7.10;;;2.20;;
68144;SDS011;55400;51.824;-0.196;2023-04-07T00:26:44;8.00;;;2.30;;
68144;SDS011;55400;51.824;-0.196;2023-04-07T00:30:44;9.20;;;2.30;;
68144;SDS011;55400;51.824;-0.196;2023-04-07T00:38:44;9.90;;;2.40;;
68144;SDS011;55400;51.824;-0.196;2023-04-07T00:42:44;7.90;;;2.50;;
68144;SDS011;55400;51.824;-0.196;2023-04-07T00:46:46;10.00;;;2.20;;
68144;SDS011;55400;51.824;-0.196;2023-04-07T00:50:44;8.70;;;2.30;;
68144;SDS011;55400;51.824;-0.196;2023-04-07T00:54:45;10.50;;;2.50;;
68144;SDS011;55400;51.824;-0.196;2023-04-07T00:58:44;6.90;;;2.30;;
68144;SDS011;55400;51.824;-0.196;2023-04-07T01:02:47;6.30;;;1.90;;
68144;SDS011;55400;51.824;-0.196;2023-04-07T01:06:47;9.50;;;2.40;;
68144;SDS011;55400;51.824;-0.196;2023-04-07T01:10:50;8.80;;;2.20;;
68144;SDS011;55400;51.824;-0.196;2023-04-07T01:14:49;7.80;;;2.20;;
68144;SDS011;55400;51.824;-0.196;2023-04-07T01:18:46;10.60;;;2.50;;
68144;SDS011;55400;51.824;-0.196;2023-04-07T01:22:46;11.30;;;2.30;;
68144;SDS011;55400;51.824;-0.196;2023-04-07T01:26:45;10.90;;;2.20;;
68144;SDS011;55400;51.824;-0.196;2023-04-07T01:30:44;9.50;;;2.40;;
68144;SDS011;55400;51.824;-0.196;2023-04-07T01:34:46;7.70;;;2.20;;
68144;SDS011;55400;51.824;-0.196;2023-04-07T01:38:44;10.40;;;2.40;;
68144;SDS011;55400;51.824;-0.196;2023-04-07T01:42:44;8.20;;;2.60;;
68144;SDS011;55400;51.824;-0.196;2023-04-07T01:46:44;9.90;;;2.50;;
68144;SDS011;55400;51.824;-0.196;2023-04-07T01:50:45;10.20;;;2.20;;
68144;SDS011;55400;51.824;-0.196;2023-04-07T01:54:44;8.20;;;2.60;;
68144;SDS011;55400;51.824;-0.196;2023-04-07T02:10:46;9.70;;;2.60;;
68144;SDS011;55400;51.824;-0.196;2023-04-07T02:14:44;7.20;;;2.30;;
68144;SDS011;55400;51.824;-0.196;2023-04-07T02:18:45;7.10;;;1.90;;
68144;SDS011;55400;51.824;-0.196;2023-04-07T02:22:44;7.70;;;2.20;;
68144;SDS011;55400;51.824;-0.196;2023-04-07T02:26:44;10.20;;;2.40;;
68144;SDS011;55400;51.824;-0.196;2023-04-07T02:30:44;10.50;;;2.70;;
68144;SDS011;55400;51.824;-0.196;2023-04-07T02:34:44;7.40;;;2.30;;
68144;SDS011;55400;51.824;-0.196;2023-04-07T02:42:44;9.90;;;2.40;;
68144;SDS011;55400;51.824;-0.196;2023-04-07T02:46:44;9.40;;;2.30;;
68144;SDS011;55400;51.824;-0.196;2023-04-07T02:50:44;11.00;;;2.50;;
68144;SDS011;55400;51.824;-0.196;2023-04-07T02:54:44;7.00;;;2.50;;
68144;SDS011;55400;51.824;-0.196;2023-04-07T02:58:44;7.50;;;2.30;;
68144;SDS011;55400;51.824;-0.196;2023-04-07T03:02:44;7.30;;;2.40;;
68144;SDS011;55400;51.824;-0.196;2023-04-07T03:06:44;9.00;;;2.20;;
68144;SDS011;55400;51.824;-0.196;2023-04-07T03:10:44;9.80;;;2.60;;
68144;SDS011;55400;51.824;-0.196;2023-04-07T03:14:44;8.10;;;2.40;;
68144;SDS011;55400;51.824;-0.196;2023-04-07T03:18:44;11.30;;;2.90;;
68144;SDS011;55400;51.824;-0.196;2023-04-07T03:22:44;7.90;;;2.30;;
68144;SDS011;55400;51.824;-0.196;2023-04-07T03:26:44;8.00;;;2.40;;
68144;SDS011;55400;51.824;-0.196;2023-04-07T03:30:44;7.00;;;2.50;;
68144;SDS011;55400;51.824;-0.196;2023-04-07T03:34:44;9.90;;;2.50;;
68144;SDS011;55400;51.824;-0.196;2023-04-07T03:38:46;7.90;;;2.50;;
68144;SDS011;55400;51.824;-0.196;2023-04-07T03:42:44;13.20;;;2.60;;
68144;SDS011;55400;51.824;-0.196;2023-04-07T03:46:44;18.40;;;3.50;;
68144;SDS011;55400;51.824;-0.196;2023-04-07T03:50:44;8.40;;;2.60;;
68144;SDS011;55400;51.824;-0.196;2023-04-07T03:54:44;10.50;;;2.80;;
68144;SDS011;55400;51.824;-0.196;2023-04-07T03:58:44;7.30;;;2.30;;
68144;SDS011;55400;51.824;-0.196;2023-04-07T04:02:44;11.30;;;2.80;;
68144;SDS011;55400;51.824;-0.196;2023-04-07T04:06:44;6.90;;;2.40;;
68144;SDS011;55400;51.824;-0.196;2023-04-07T04:10:44;8.80;;;2.60;;
68144;SDS011;55400;51.824;-0.196;2023-04-07T04:14:44;9.60;;;2.60;;
68144;SDS011;55400;51.824;-0.196;2023-04-07T04:18:44;10.30;;;3.10;;
68144;SDS011;55400;51.824;-0.196;2023-04-07T04:22:44;10.20;;;2.80;;
68144;SDS011;55400;51.824;-0.196;2023-04-07T04:26:44;11.00;;;2.90;;
68144;SDS011;55400;51.824;-0.196;2023-04-07T04:30:44;10.40;;;2.80;;
68144;SDS011;55400;51.824;-0.196;2023-04-07T04:34:44;8.40;;;2.30;;
68144;SDS011;55400;51.824;-0.196;2023-04-07T04:38:44;9.70;;;2.20;;
68144;SDS011;55400;51.824;-0.196;2023-04-07T04:42:44;9.10;;;2.30;;
68144;SDS011;55400;51.824;-0.196;2023-04-07T04:46:44;6.30;;;2.40;;
68144;SDS011;55400;51.824;-0.196;2023-04-07T04:50:44;9.20;;;2.50;;
68144;SDS011;55400;51.824;-0.196;2023-04-07T04:54:44;9.00;;;2.50;;
68144;SDS011;55400;51.824;-0.196;2023-04-07T04:58:44;8.40;;;2.50;;
68144;SDS011;55400;51.824;-0.196;2023-04-07T05:02:44;9.20;;;2.60;;
68144;SDS011;55400;51.824;-0.196;2023-04-07T05:06:44;10.70;;;2.60;;
68144;SDS011;55400;51.824;-0.196;2023-04-07T05:10:45;8.80;;;2.60;;
68144;SDS011;55400;51.824;-0.196;2023-04-07T05:14:45;9.90;;;2.70;;
68144;SDS011;55400;51.824;-0.196;2023-04-07T05:18:44;8.60;;;2.40;;
68144;SDS011;55400;51.824;-0.196;2023-04-07T05:22:44;7.40;;;2.60;;
68144;SDS011;55400;51.824;-0.196;2023-04-07T05:26:44;8.90;;;2.50;;
68144;SDS011;55400;51.824;-0.196;2023-04-07T05:30:44;6.80;;;2.50;;
68144;SDS011;55400;51.824;-0.196;2023-04-07T05:34:44;10.90;;;2.80;;
68144;SDS011;55400;51.824;-0.196;2023-04-07T05:38:44;9.50;;;2.60;;
68144;SDS011;55400;51.824;-0.196;2023-04-07T05:42:44;10.30;;;2.60;;
68144;SDS011;55400;51.824;-0.196;2023-04-07T05:46:44;8.00;;;2.60;;
68144;SDS011;55400;51.824;-0.196;2023-04-07T05:50:44;8.70;;;2.60;;
68144;SDS011;55400;51.824;-0.196;2023-04-07T05:58:45;8.20;;;2.80;;
68144;SDS011;55400;51.824;-0.196;2023-04-07T06:02:45;9.40;;;2.60;;
68144;SDS011;55400;51.824;-0.196;2023-04-07T06:06:45;7.10;;;2.50;;
68144;SDS011;55400;51.824;-0.196;2023-04-07T06:10:44;8.50;;;2.30;;
68144;SDS011;55400;51.824;-0.196;2023-04-07T06:14:49;8.30;;;2.90;;
68144;SDS011;55400;51.824;-0.196;2023-04-07T06:18:44;12.80;;;3.10;;
68144;SDS011;55400;51.824;-0.196;2023-04-07T06:26:44;8.50;;;2.70;;
68144;SDS011;55400;51.824;-0.196;2023-04-07T06:30:45;9.30;;;2.80;;
68144;SDS011;55400;51.824;-0.196;2023-04-07T06:34:45;6.60;;;2.50;;
68144;SDS011;55400;51.824;-0.196;2023-04-07T06:38:44;11.00;;;2.40;;
68144;SDS011;55400;51.824;-0.196;2023-04-07T06:42:45;8.20;;;2.70;;
68144;SDS011;55400;51.824;-0.196;2023-04-07T06:46:44;10.50;;;3.30;;
68144;SDS011;55400;51.824;-0.196;2023-04-07T06:50:45;7.20;;;2.40;;
68144;SDS011;55400;51.824;-0.196;2023-04-07T06:54:44;9.10;;;2.00;;
68144;SDS011;55400;51.824;-0.196;2023-04-07T07:02:45;8.90;;;2.40;;
68144;SDS011;55400;51.824;-0.196;2023-04-07T07:06:45;6.30;;;2.40;;
68144;SDS011;55400;51.824;-0.196;2023-04-07T07:10:45;7.80;;;2.50;;
68144;SDS011;55400;51.824;-0.196;2023-04-07T07:14:45;9.60;;;2.60;;
68144;SDS011;55400;51.824;-0.196;2023-04-07T07:18:45;7.10;;;2.30;;
68144;SDS011;55400;51.824;-0.196;2023-04-07T07:22:45;8.30;;;2.40;;
68144;SDS011;55400;51.824;-0.196;2023-04-07T07:26:45;8.00;;;2.10;;
68144;SDS011;55400;51.824;-0.196;2023-04-07T07:30:45;9.20;;;2.40;;
68144;SDS011;55400;51.824;-0.196;2023-04-07T07:34:45;8.30;;;2.50;;
68144;SDS011;55400;51.824;-0.196;2023-04-07T07:38:45;8.30;;;2.40;;
68144;SDS011;55400;51.824;-0.196;2023-04-07T07:42:45;8.60;;;2.20;;
68144;SDS011;55400;51.824;-0.196;2023-04-07T07:46:45;11.80;;;2.60;;
68144;SDS011;55400;51.824;-0.196;2023-04-07T07:50:45;8.30;;;2.40;;
68144;SDS011;55400;51.824;-0.196;2023-04-07T07:54:45;8.40;;;2.30;;
68144;SDS011;55400;51.824;-0.196;2023-04-07T07:58:24;8.20;;;2.20;;
68144;SDS011;55400;51.824;-0.196;2023-04-07T07:58:45;8.20;;;2.20;;
68144;SDS011;55400;51.824;-0.196;2023-04-07T08:02:45;6.30;;;2.20;;
68144;SDS011;55400;51.824;-0.196;2023-04-07T08:09:25;6.20;;;2.20;;
68144;SDS011;55400;51.824;-0.196;2023-04-07T08:10:46;6.20;;;2.20;;
68144;SDS011;55400;51.824;-0.196;2023-04-07T08:14:45;7.20;;;2.40;;
68144;SDS011;55400;51.824;-0.196;2023-04-07T08:18:45;8.80;;;2.50;;
68144;SDS011;55400;51.824;-0.196;2023-04-07T08:22:47;7.70;;;2.10;;
68144;SDS011;55400;51.824;-0.196;2023-04-07T08:26:45;7.50;;;2.30;;
68144;SDS011;55400;51.824;-0.196;2023-04-07T08:34:45;7.50;;;2.50;;
68144;SDS011;55400;51.824;-0.196;2023-04-07T08:38:45;7.80;;;2.20;;
68144;SDS011;55400;51.824;-0.196;2023-04-07T08:42:46;6.50;;;2.50;;
68144;SDS011;55400;51.824;-0.196;2023-04-07T08:46:46;9.60;;;2.30;;
68144;SDS011;55400;51.824;-0.196;2023-04-07T08:50:48;11.00;;;2.70;;
68144;SDS011;55400;51.824;-0.196;2023-04-07T08:54:46;6.00;;;2.20;;
68144;SDS011;55400;51.824;-0.196;2023-04-07T08:58:46;6.50;;;2.40;;
68144;SDS011;55400;51.824;-0.196;2023-04-07T09:02:46;9.20;;;2.20;;
68144;SDS011;55400;51.824;-0.196;2023-04-07T09:06:55;8.00;;;2.10;;
68144;SDS011;55400;51.824;-0.196;2023-04-07T09:10:45;8.50;;;2.60;;
68144;SDS011;55400;51.824;-0.196;2023-04-07T09:14:46;4.90;;;2.10;;
68144;SDS011;55400;51.824;-0.196;2023-04-07T09:18:46;7.10;;;2.10;;
68144;SDS011;55400;51.824;-0.196;2023-04-07T09:22:45;8.90;;;2.40;;
68144;SDS011;55400;51.824;-0.196;2023-04-07T09:26:45;7.80;;;2.30;;
68144;SDS011;55400;51.824;-0.196;2023-04-07T09:30:52;5.90;;;2.10;;
68144;SDS011;55400;51.824;-0.196;2023-04-07T09:34:45;6.70;;;2.40;;
68144;SDS011;55400;51.824;-0.196;2023-04-07T09:38:45;8.10;;;2.30;;
68144;SDS011;55400;51.824;-0.196;2023-04-07T09:42:46;6.50;;;2.20;;
68144;SDS011;55400;51.824;-0.196;2023-04-07T09:46:50;8.20;;;2.30;;
68144;SDS011;55400;51.824;-0.196;2023-04-07T09:50:45;7.70;;;2.40;;
68144;SDS011;55400;51.824;-0.196;2023-04-07T09:54:46;7.60;;;2.40;;
68144;SDS011;55400;51.824;-0.196;2023-04-07T09:58:46;7.80;;;2.30;;
68144;SDS011;55400;51.824;-0.196;2023-04-07T10:02:46;6.70;;;2.30;;
68144;SDS011;55400;51.824;-0.196;2023-04-07T10:06:46;6.40;;;1.90;;
68144;SDS011;55400;51.824;-0.196;2023-04-07T10:10:46;6.90;;;2.30;;
68144;SDS011;55400;51.824;-0.196;2023-04-07T10:14:46;6.30;;;2.40;;
68144;SDS011;55400;51.824;-0.196;2023-04-07T10:18:45;7.30;;;2.00;;
68144;SDS011;55400;51.824;-0.196;2023-04-07T10:22:47;8.20;;;2.20;;
68144;SDS011;55400;51.824;-0.196;2023-04-07T10:26:50;5.30;;;2.10;;
68144;SDS011;55400;51.824;-0.196;2023-04-07T10:30:46;6.90;;;1.90;;
68144;SDS011;55400;51.824;-0.196;2023-04-07T10:34:56;7.60;;;1.90;;
68144;SDS011;55400;51.824;-0.196;2023-04-07T10:42:46;3.90;;;1.80;;
68144;SDS011;55400;51.824;-0.196;2023-04-07T10:47:03;5.30;;;1.70;;
68144;SDS011;55400;51.824;-0.196;2023-04-07T10:54:45;9.40;;;2.10;;
68144;SDS011;55400;51.824;-0.196;2023-04-07T10:58:45;5.60;;;1.50;;
68144;SDS011;55400;51.824;-0.196;2023-04-07T11:02:45;5.60;;;1.50;;
68144;SDS011;55400;51.824;-0.196;2023-04-07T11:06:46;5.10;;;1.70;;
68144;SDS011;55400;51.824;-0.196;2023-04-07T11:10:46;6.80;;;1.50;;
68144;SDS011;55400;51.824;-0.196;2023-04-07T11:14:45;5.10;;;1.80;;
68144;SDS011;55400;51.824;-0.196;2023-04-07T11:18:46;5.90;;;1.60;;
68144;SDS011;55400;51.824;-0.196;2023-04-07T11:22:58;5.50;;;1.80;;
68144;SDS011;55400;51.824;-0.196;2023-04-07T11:26:45;7.50;;;1.80;;
68144;SDS011;55400;51.824;-0.196;2023-04-07T11:30:48;7.60;;;1.90;;
68144;SDS011;55400;51.824;-0.196;2023-04-07T11:34:45;6.40;;;1.90;;
68144;SDS011;55400;51.824;-0.196;2023-04-07T11:38:46;8.20;;;1.80;;
68144;SDS011;55400;51.824;-0.196;2023-04-07T11:42:45;4.20;;;1.80;;
68144;SDS011;55400;51.824;-0.196;2023-04-07T11:50:46;5.90;;;1.70;;
68144;SDS011;55400;51.824;-0.196;2023-04-07T11:54:46;4.20;;;1.80;;
68144;SDS011;55400;51.824;-0.196;2023-04-07T11:58:46;5.70;;;1.90;;
68144;SDS011;55400;51.824;-0.196;2023-04-07T12:02:45;3.90;;;1.60;;
68144;SDS011;55400;51.824;-0.196;2023-04-07T12:06:47;4.30;;;1.70;;
68144;SDS011;55400;51.824;-0.196;2023-04-07T12:10:46;4.40;;;1.80;;
68144;SDS011;55400;51.824;-0.196;2023-04-07T12:14:45;7.10;;;2.10;;
68144;SDS011;55400;51.824;-0.196;2023-04-07T12:18:45;2.60;;;1.40;;
68144;SDS011;55400;51.824;-0.196;2023-04-07T12:22:46;4.50;;;1.40;;
68144;SDS011;55400;51.824;-0.196;2023-04-07T12:26:46;3.70;;;1.60;;
68144;SDS011;55400;51.824;-0.196;2023-04-07T12:30:46;2.50;;;1.30;;
68144;SDS011;55400;51.824;-0.196;2023-04-07T12:34:45;3.20;;;1.50;;
68144;SDS011;55400;51.824;-0.196;2023-04-07T12:38:46;4.20;;;1.50;;
68144;SDS011;55400;51.824;-0.196;2023-04-07T12:42:46;4.80;;;1.40;;
68144;SDS011;55400;51.824;-0.196;2023-04-07T12:46:46;4.00;;;1.50;;
68144;SDS011;55400;51.824;-0.196;2023-04-07T12:50:45;4.90;;;1.40;;
68144;SDS011;55400;51.824;-0.196;2023-04-07T12:54:46;3.70;;;1.50;;
68144;SDS011;55400;51.824;-0.196;2023-04-07T12:58:45;2.40;;;1.10;;
68144;SDS011;55400;51.824;-0.196;2023-04-07T13:02:46;3.60;;;1.20;;
68144;SDS011;55400;51.824;-0.196;2023-04-07T13:06:46;3.80;;;1.40;;
68144;SDS011;55400;51.824;-0.196;2023-04-07T13:10:46;2.20;;;1.10;;
68144;SDS011;55400;51.824;-0.196;2023-04-07T13:14:46;3.70;;;1.20;;
68144;SDS011;55400;51.824;-0.196;2023-04-07T13:18:46;2.90;;;1.30;;
68144;SDS011;55400;51.824;-0.196;2023-04-07T13:22:46;5.90;;;1.50;;
68144;SDS011;55400;51.824;-0.196;2023-04-07T13:26:46;3.40;;;1.10;;
68144;SDS011;55400;51.824;-0.196;2023-04-07T13:30:46;4.70;;;1.30;;
68144;SDS011;55400;51.824;-0.196;2023-04-07T13:34:46;2.90;;;1.40;;
68144;SDS011;55400;51.824;-0.196;2023-04-07T13:38:46;3.60;;;1.50;;
68144;SDS011;55400;51.824;-0.196;2023-04-07T13:42:46;2.00;;;1.30;;
68144;SDS011;55400;51.824;-0.196;2023-04-07T13:46:46;4.80;;;1.20;;
68144;SDS011;55400;51.824;-0.196;2023-04-07T13:50:46;2.60;;;1.20;;
68144;SDS011;55400;51.824;-0.196;2023-04-07T13:54:46;3.60;;;1.40;;
68144;SDS011;55400;51.824;-0.196;2023-04-07T13:58:46;3.30;;;1.30;;
68144;SDS011;55400;51.824;-0.196;2023-04-07T14:02:47;4.60;;;1.40;;
68144;SDS011;55400;51.824;-0.196;2023-04-07T14:06:46;2.80;;;1.20;;
68144;SDS011;55400;51.824;-0.196;2023-04-07T14:10:46;4.00;;;1.30;;
68144;SDS011;55400;51.824;-0.196;2023-04-07T14:14:46;4.00;;;1.30;;
68144;SDS011;55400;51.824;-0.196;2023-04-07T14:18:46;3.00;;;1.00;;
68144;SDS011;55400;51.824;-0.196;2023-04-07T14:22:46;2.90;;;1.10;;
68144;SDS011;55400;51.824;-0.196;2023-04-07T14:30:46;2.40;;;1.20;;
68144;SDS011;55400;51.824;-0.196;2023-04-07T14:34:46;6.90;;;2.60;;
68144;SDS011;55400;51.824;-0.196;2023-04-07T14:38:46;2.50;;;1.10;;
68144;SDS011;55400;51.824;-0.196;2023-04-07T14:42:46;3.20;;;1.20;;
68144;SDS011;55400;51.824;-0.196;2023-04-07T14:46:46;2.60;;;1.30;;
68144;SDS011;55400;51.824;-0.196;2023-04-07T14:50:46;4.00;;;1.10;;
68144;SDS011;55400;51.824;-0.196;2023-04-07T14:54:46;4.70;;;1.30;;
68144;SDS011;55400;51.824;-0.196;2023-04-07T14:58:46;2.90;;;1.30;;
68144;SDS011;55400;51.824;-0.196;2023-04-07T15:02:46;5.90;;;1.40;;
68144;SDS011;55400;51.824;-0.196;2023-04-07T15:06:46;3.20;;;1.10;;
68144;SDS011;55400;51.824;-0.196;2023-04-07T15:10:46;2.30;;;1.20;;
68144;SDS011;55400;51.824;-0.196;2023-04-07T15:14:49;2.10;;;1.00;;
68144;SDS011;55400;51.824;-0.196;2023-04-07T15:18:47;2.20;;;0.90;;
68144;SDS011;55400;51.824;-0.196;2023-04-07T15:22:46;2.00;;;1.10;;
68144;SDS011;55400;51.824;-0.196;2023-04-07T15:26:47;2.70;;;1.20;;
68144;SDS011;55400;51.824;-0.196;2023-04-07T15:30:46;2.50;;;1.30;;
68144;SDS011;55400;51.824;-0.196;2023-04-07T15:34:46;1.50;;;0.90;;
68144;SDS011;55400;51.824;-0.196;2023-04-07T15:38:46;1.50;;;0.90;;
68144;SDS011;55400;51.824;-0.196;2023-04-07T15:42:46;2.90;;;1.20;;
68144;SDS011;55400;51.824;-0.196;2023-04-07T15:50:46;2.70;;;1.00;;
68144;SDS011;55400;51.824;-0.196;2023-04-07T15:54:46;5.80;;;1.20;;
68144;SDS011;55400;51.824;-0.196;2023-04-07T15:58:46;2.00;;;1.00;;
68144;SDS011;55400;51.824;-0.196;2023-04-07T16:02:46;2.80;;;1.10;;
68144;SDS011;55400;51.824;-0.196;2023-04-07T16:06:46;4.80;;;1.10;;
68144;SDS011;55400;51.824;-0.196;2023-04-07T16:10:46;3.20;;;1.10;;
68144;SDS011;55400;51.824;-0.196;2023-04-07T16:14:46;1.40;;;0.90;;
68144;SDS011;55400;51.824;-0.196;2023-04-07T16:18:46;2.50;;;0.80;;
68144;SDS011;55400;51.824;-0.196;2023-04-07T16:22:46;2.70;;;1.10;;
68144;SDS011;55400;51.824;-0.196;2023-04-07T16:26:46;2.40;;;1.10;;
68144;SDS011;55400;51.824;-0.196;2023-04-07T16:30:46;2.80;;;0.80;;
68144;SDS011;55400;51.824;-0.196;2023-04-07T16:34:46;4.10;;;1.20;;
68144;SDS011;55400;51.824;-0.196;2023-04-07T16:38:46;1.80;;;1.00;;
68144;SDS011;55400;51.824;-0.196;2023-04-07T16:42:46;3.00;;;1.20;;
68144;SDS011;55400;51.824;-0.196;2023-04-07T16:46:46;2.90;;;1.10;;
68144;SDS011;55400;51.824;-0.196;2023-04-07T16:50:46;2.80;;;1.10;;
68144;SDS011;55400;51.824;-0.196;2023-04-07T16:54:46;4.00;;;0.90;;
68144;SDS011;55400;51.824;-0.196;2023-04-07T16:58:47;3.70;;;1.20;;
68144;SDS011;55400;51.824;-0.196;2023-04-07T17:02:47;3.30;;;0.90;;
68144;SDS011;55400;51.824;-0.196;2023-04-07T17:06:46;2.00;;;1.00;;
68144;SDS011;55400;51.824;-0.196;2023-04-07T17:10:46;2.10;;;1.20;;
68144;SDS011;55400;51.824;-0.196;2023-04-07T17:14:46;1.20;;;0.70;;
68144;SDS011;55400;51.824;-0.196;2023-04-07T17:18:46;3.10;;;1.00;;
68144;SDS011;55400;51.824;-0.196;2023-04-07T17:22:46;3.40;;;0.90;;
68144;SDS011;55400;51.824;-0.196;2023-04-07T17:26:46;2.90;;;1.00;;
68144;SDS011;55400;51.824;-0.196;2023-04-07T17:30:46;2.00;;;0.80;;
68144;SDS011;55400;51.824;-0.196;2023-04-07T17:34:46;2.50;;;0.90;;
68144;SDS011;55400;51.824;-0.196;2023-04-07T17:38:46;3.70;;;1.20;;
68144;SDS011;55400;51.824;-0.196;2023-04-07T17:46:47;2.60;;;0.80;;
68144;SDS011;55400;51.824;-0.196;2023-04-07T17:50:47;2.40;;;1.00;;
68144;SDS011;55400;51.824;-0.196;2023-04-07T17:54:46;2.50;;;0.90;;
68144;SDS011;55400;51.824;-0.196;2023-04-07T17:58:47;4.20;;;1.60;;
68144;SDS011;55400;51.824;-0.196;2023-04-07T18:02:46;3.00;;;1.40;;
68144;SDS011;55400;51.824;-0.196;2023-04-07T18:06:46;2.50;;;1.50;;
68144;SDS011;55400;51.824;-0.196;2023-04-07T18:10:47;2.80;;;1.30;;
68144;SDS011;55400;51.824;-0.196;2023-04-07T18:14:46;2.90;;;1.10;;
68144;SDS011;55400;51.824;-0.196;2023-04-07T18:18:47;3.00;;;1.30;;
68144;SDS011;55400;51.824;-0.196;2023-04-07T18:22:49;2.00;;;1.20;;
68144;SDS011;55400;51.824;-0.196;2023-04-07T18:26:46;2.00;;;1.10;;
68144;SDS011;55400;51.824;-0.196;2023-04-07T18:30:47;2.80;;;1.20;;
68144;SDS011;55400;51.824;-0.196;2023-04-07T18:34:47;4.00;;;1.00;;
68144;SDS011;55400;51.824;-0.196;2023-04-07T18:38:46;3.30;;;1.30;;
68144;SDS011;55400;51.824;-0.196;2023-04-07T18:42:47;3.40;;;1.30;;
68144;SDS011;55400;51.824;-0.196;2023-04-07T18:46:47;4.90;;;1.20;;
68144;SDS011;55400;51.824;-0.196;2023-04-07T18:50:48;3.40;;;1.30;;
68144;SDS011;55400;51.824;-0.196;2023-04-07T18:54:46;3.10;;;1.50;;
68144;SDS011;55400;51.824;-0.196;2023-04-07T18:58:47;2.50;;;1.30;;
68144;SDS011;55400;51.824;-0.196;2023-04-07T19:02:47;2.70;;;1.30;;
68144;SDS011;55400;51.824;-0.196;2023-04-07T19:06:48;3.60;;;1.30;;
68144;SDS011;55400;51.824;-0.196;2023-04-07T19:10:47;2.00;;;1.00;;
68144;SDS011;55400;51.824;-0.196;2023-04-07T19:14:47;3.80;;;1.20;;
68144;SDS011;55400;51.824;-0.196;2023-04-07T19:18:47;3.10;;;1.10;;
68144;SDS011;55400;51.824;-0.196;2023-04-07T19:22:47;4.00;;;1.50;;
68144;SDS011;55400;51.824;-0.196;2023-04-07T19:26:47;4.80;;;2.00;;
68144;SDS011;55400;51.824;-0.196;2023-04-07T19:30:47;3.90;;;1.80;;
68144;SDS011;55400;51.824;-0.196;2023-04-07T19:34:47;4.50;;;2.00;;
68144;SDS011;55400;51.824;-0.196;2023-04-07T19:38:47;2.20;;;1.30;;
68144;SDS011;55400;51.824;-0.196;2023-04-07T19:42:47;4.20;;;2.10;;
68144;SDS011;55400;51.824;-0.196;2023-04-07T19:46:47;4.30;;;2.00;;
68144;SDS011;55400;51.824;-0.196;2023-04-07T19:50:47;5.40;;;1.90;;
68144;SDS011;55400;51.824;-0.196;2023-04-07T19:54:47;2.90;;;1.90;;
68144;SDS011;55400;51.824;-0.196;2023-04-07T19:58:47;8.50;;;1.90;;
68144;SDS011;55400;51.824;-0.196;2023-04-07T20:02:47;5.40;;;2.00;;
68144;SDS011;55400;51.824;-0.196;2023-04-07T20:06:47;3.50;;;1.90;;
68144;SDS011;55400;51.824;-0.196;2023-04-07T20:10:49;3.90;;;1.80;;
68144;SDS011;55400;51.824;-0.196;2023-04-07T20:14:47;3.70;;;1.60;;
68144;SDS011;55400;51.824;-0.196;2023-04-07T20:18:47;4.40;;;1.80;;
68144;SDS011;55400;51.824;-0.196;2023-04-07T20:26:47;4.50;;;2.10;;
68144;SDS011;55400;51.824;-0.196;2023-04-07T20:30:47;9.40;;;2.10;;
68144;SDS011;55400;51.824;-0.196;2023-04-07T20:34:47;6.40;;;2.10;;
68144;SDS011;55400;51.824;-0.196;2023-04-07T20:38:47;4.70;;;2.50;;
68144;SDS011;55400;51.824;-0.196;2023-04-07T20:42:47;5.20;;;2.10;;
68144;SDS011;55400;51.824;-0.196;2023-04-07T20:46:47;5.10;;;2.00;;
68144;SDS011;55400;51.824;-0.196;2023-04-07T20:50:47;4.70;;;1.90;;
68144;SDS011;55400;51.824;-0.196;2023-04-07T20:54:47;7.60;;;2.20;;
68144;SDS011;55400;51.824;-0.196;2023-04-07T20:58:47;4.70;;;2.10;;
68144;SDS011;55400;51.824;-0.196;2023-04-07T21:02:47;5.40;;;2.50;;
68144;SDS011;55400;51.824;-0.196;2023-04-07T21:06:47;4.90;;;2.40;;
68144;SDS011;55400;51.824;-0.196;2023-04-07T21:10:47;6.10;;;2.70;;
68144;SDS011;55400;51.824;-0.196;2023-04-07T21:14:47;4.50;;;2.70;;
68144;SDS011;55400;51.824;-0.196;2023-04-07T21:18:47;7.20;;;2.90;;
68144;SDS011;55400;51.824;-0.196;2023-04-07T21:22:47;6.50;;;3.10;;
68144;SDS011;55400;51.824;-0.196;2023-04-07T21:26:47;7.80;;;3.50;;
68144;SDS011;55400;51.824;-0.196;2023-04-07T21:30:47;8.10;;;3.40;;
68144;SDS011;55400;51.824;-0.196;2023-04-07T21:34:50;6.70;;;3.00;;
68144;SDS011;55400;51.824;-0.196;2023-04-07T21:38:48;12.10;;;3.30;;
68144;SDS011;55400;51.824;-0.196;2023-04-07T21:42:47;6.70;;;3.30;;
68144;SDS011;55400;51.824;-0.196;2023-04-07T21:46:47;8.40;;;3.60;;
68144;SDS011;55400;51.824;-0.196;2023-04-07T21:50:49;8.60;;;3.30;;
68144;SDS011;55400;51.824;-0.196;2023-04-07T21:54:47;9.60;;;4.10;;
68144;SDS011;55400;51.824;-0.196;2023-04-07T21:58:47;9.20;;;4.20;;
68144;SDS011;55400;51.824;-0.196;2023-04-07T22:02:47;7.90;;;4.00;;
68144;SDS011;55400;51.824;-0.196;2023-04-07T22:06:47;11.40;;;4.70;;
68144;SDS011;55400;51.824;-0.196;2023-04-07T22:10:47;11.40;;;5.00;;
68144;SDS011;55400;51.824;-0.196;2023-04-07T22:14:47;11.90;;;5.00;;
68144;SDS011;55400;51.824;-0.196;2023-04-07T22:18:47;13.60;;;5.60;;
68144;SDS011;55400;51.824;-0.196;2023-04-07T22:22:47;12.30;;;5.90;;
68144;SDS011;55400;51.824;-0.196;2023-04-07T22:26:47;14.90;;;5.70;;
68144;SDS011;55400;51.824;-0.196;2023-04-07T22:30:47;12.90;;;6.00;;
68144;SDS011;55400;51.824;-0.196;2023-04-07T22:34:47;11.20;;;6.10;;
68144;SDS011;55400;51.824;-0.196;2023-04-07T22:38:47;13.80;;;6.30;;
68144;SDS011;55400;51.824;-0.196;2023-04-07T22:42:47;16.00;;;6.50;;
68144;SDS011;55400;51.824;-0.196;2023-04-07T22:46:47;13.90;;;6.50;;
68144;SDS011;55400;51.824;-0.196;2023-04-07T22:50:47;13.70;;;6.20;;
68144;SDS011;55400;51.824;-0.196;2023-04-07T22:54:47;17.30;;;6.60;;
68144;SDS011;55400;51.824;-0.196;2023-04-07T22:58:47;15.70;;;6.80;;
68144;SDS011;55400;51.824;-0.196;2023-04-07T23:02:47;13.60;;;6.60;;
68144;SDS011;55400;51.824;-0.196;2023-04-07T23:06:47;15.20;;;6.70;;
68144;SDS011;55400;51.824;-0.196;2023-04-07T23:10:47;13.00;;;7.00;;
68144;SDS011;55400;51.824;-0.196;2023-04-07T23:14:47;13.30;;;7.10;;
68144;SDS011;55400;51.824;-0.196;2023-04-07T23:18:47;15.00;;;7.00;;
68144;SDS011;55400;51.824;-0.196;2023-04-07T23:22:47;14.60;;;7.30;;
68144;SDS011;55400;51.824;-0.196;2023-04-07T23:26:47;15.60;;;7.60;;
68144;SDS011;55400;51.824;-0.196;2023-04-07T23:30:47;16.70;;;7.80;;
68144;SDS011;55400;51.824;-0.196;2023-04-07T23:34:47;13.80;;;7.70;;
68144;SDS011;55400;51.824;-0.196;2023-04-07T23:38:47;15.90;;;7.50;;
68144;SDS011;55400;51.824;-0.196;2023-04-07T23:42:47;14.70;;;7.70;;
68144;SDS011;55400;51.824;-0.196;2023-04-07T23:46:47;17.00;;;7.90;;
68144;SDS011;55400;51.824;-0.196;2023-04-07T23:50:48;16.70;;;7.20;;
68144;SDS011;55400;51.824;-0.196;2023-04-07T23:54:47;13.90;;;7.20;;
68144;SDS011;55400;51.824;-0.196;2023-04-07T23:58:47;14.20;;;7.10;;
